Detmold Airport


Codes: EDLJ/
Name: Detmold Airport
City: Detmold
Country: Germany
Elevation: 650 ft.

Photos at Detmold Airport


   Photos courtesy of SpottingLog. You can add your own sightings and photos by signing up for a free trial today.



No photos found.

Weather at Detmold Airport


Time (UTC)DescriptionTempratureWindCloud coverageVisibilityPressureHumidity
25-Jun-2024 12:00Clear Sky26°C9 mph, E0%10000m1015hPa57%
25-Jun-2024 15:00Clear Sky26°C11 mph, E0%10000m1015hPa56%
25-Jun-2024 18:00Clear Sky23°C9 mph, E1%10000m1014hPa65%
25-Jun-2024 21:00Clear Sky17°C4 mph, E0%10000m1015hPa80%
26-Jun-2024 00:00Clear Sky16°C4 mph, NE0%10000m1014hPa79%
26-Jun-2024 03:00Clear Sky15°C4 mph, NE1%10000m1013hPa86%
26-Jun-2024 06:00Clear Sky20°C4 mph, NE6%10000m1013hPa73%
26-Jun-2024 09:00Clear Sky25°C9 mph, E1%10000m1012hPa63%
26-Jun-2024 12:00Clear Sky27°C9 mph, E6%10000m1011hPa57%
26-Jun-2024 15:00Light Rain26°C7 mph, NE84%10000m1010hPa68%
26-Jun-2024 18:00Light Rain25°C7 mph, NE62%10000m1009hPa75%
26-Jun-2024 21:00Clear Sky21°C4 mph, E8%10000m1009hPa85%
27-Jun-2024 00:00Clear Sky20°C2 mph, E8%10000m1009hPa87%
27-Jun-2024 03:00Scattered Clouds19°C2 mph, SE31%10000m1008hPa86%
27-Jun-2024 06:00Light Rain22°C2 mph, S43%10000m1008hPa84%
27-Jun-2024 09:00Light Rain25°C4 mph, W89%5532m1008hPa75%
27-Jun-2024 12:00Moderate Rain25°C7 mph, SW91%10000m1008hPa77%
27-Jun-2024 15:00Moderate Rain25°C7 mph, SW100%10000m1009hPa79%
27-Jun-2024 18:00Light Rain24°C7 mph, SW77%10000m1008hPa83%
27-Jun-2024 21:00Light Rain19°C2 mph, SW31%10000m1010hPa89%
28-Jun-2024 00:00Scattered Clouds18°C4 mph, SW36%10000m1010hPa94%
28-Jun-2024 03:00Light Rain17°C11 mph, W77%10000m1011hPa97%
28-Jun-2024 06:00Light Rain16°C11 mph, SW88%10000m1013hPa92%
28-Jun-2024 09:00Scattered Clouds19°C13 mph, W32%10000m1015hPa62%
28-Jun-2024 12:00Broken Clouds21°C13 mph, W65%10000m1016hPa52%
28-Jun-2024 15:00Scattered Clouds22°C9 mph, W34%10000m1017hPa53%
28-Jun-2024 18:00Few Clouds20°C4 mph, NW19%10000m1017hPa69%
28-Jun-2024 21:00Clear Sky15°C0 mph, N0%10000m1018hPa79%
29-Jun-2024 00:00Clear Sky13°C2 mph, E1%10000m1017hPa86%
29-Jun-2024 03:00Few Clouds12°C4 mph, E23%10000m1016hPa88%
29-Jun-2024 06:00Scattered Clouds17°C4 mph, E25%10000m1015hPa75%
29-Jun-2024 09:00Overcast Clouds22°C7 mph, SE94%10000m1013hPa61%
29-Jun-2024 12:00Overcast Clouds26°C7 mph, SE96%10000m1011hPa63%
29-Jun-2024 15:00Overcast Clouds28°C7 mph, SE100%10000m1007hPa63%
29-Jun-2024 18:00Moderate Rain19°C0 mph, S100%10000m1006hPa94%
29-Jun-2024 21:00Light Rain18°C4 mph, S100%5552m1005hPa95%
30-Jun-2024 00:00Moderate Rain18°C7 mph, SE100%9377m1003hPa97%
30-Jun-2024 03:00Light Rain18°C11 mph, S100%10000m1001hPa93%
30-Jun-2024 06:00Light Rain16°C16 mph, N100%0m1003hPa98%
30-Jun-2024 09:00Light Rain12°C18 mph, W100%442m1006hPa97%